createdAt,value
2018-05-07T00:00:17.700Z,3.35
2018-05-07T00:01:20.179Z,3.70
2018-05-07T00:02:22.676Z,3.80
2018-05-07T00:03:25.936Z,3.35
2018-05-07T00:04:28.428Z,3.53
2018-05-07T00:05:31.715Z,3.45
2018-05-07T00:06:34.237Z,3.12
2018-05-07T00:07:36.734Z,4.10
2018-05-07T00:08:39.247Z,4.40
2018-05-07T00:09:41.769Z,3.65
2018-05-07T00:10:44.268Z,3.75
2018-05-07T00:11:47.647Z,4.05
2018-05-07T00:12:50.074Z,3.60
2018-05-07T00:13:52.562Z,3.80
2018-05-07T00:14:55.049Z,4.32
2018-05-07T00:15:57.542Z,3.40
2018-05-07T00:17:00.838Z,4.40
2018-05-07T00:18:04.092Z,3.62
2018-05-07T00:19:06.598Z,3.75
2018-05-07T00:20:09.867Z,4.05
2018-05-07T00:21:13.115Z,3.53
2018-05-07T00:22:15.624Z,4.03
2018-05-07T00:23:18.886Z,3.75
2018-05-07T00:24:21.382Z,3.60
2018-05-07T00:25:24.665Z,3.58
2018-05-07T00:26:27.170Z,3.65
2018-05-07T00:27:29.715Z,4.30
2018-05-07T00:28:33.004Z,3.83
2018-05-07T00:29:36.297Z,3.80
2018-05-07T00:30:39.567Z,3.25
2018-05-07T00:31:42.059Z,3.78
2018-05-07T00:32:45.796Z,3.75
2018-05-07T00:33:48.293Z,3.20
2018-05-07T00:34:50.784Z,4.12
2018-05-07T00:35:53.270Z,4.18
2018-05-07T00:36:56.537Z,4.12
2018-05-07T00:37:59.047Z,4.00
2018-05-07T00:39:01.551Z,4.00
2018-05-07T00:40:04.042Z,4.30
2018-05-07T00:41:06.547Z,4.15
2018-05-07T00:42:09.033Z,4.40
2018-05-07T00:43:11.525Z,3.92
2018-05-07T00:44:14.011Z,4.20
2018-05-07T00:45:16.522Z,3.78
2018-05-07T00:46:19.790Z,4.20
2018-05-07T00:47:22.304Z,4.45
2018-05-07T00:48:24.802Z,4.72
2018-05-07T00:49:27.290Z,4.18
2018-05-07T00:50:30.650Z,4.30
2018-05-07T00:51:33.212Z,4.37
2018-05-07T00:52:35.714Z,4.65
2018-05-07T00:53:38.212Z,4.70
2018-05-07T00:54:52.717Z,4.25
2018-05-07T00:55:55.220Z,3.85
2018-05-07T00:56:57.716Z,4.55
2018-05-07T00:58:00.979Z,4.82
2018-05-07T00:59:04.280Z,4.00
2018-05-07T01:00:07.559Z,3.83
2018-05-07T01:01:10.071Z,3.87
2018-05-07T01:02:12.553Z,4.30
2018-05-07T01:03:15.053Z,3.75
2018-05-07T01:04:17.598Z,3.75
2018-05-07T01:05:20.153Z,3.58
2018-05-07T01:06:22.641Z,3.92
2018-05-07T01:07:25.140Z,3.45
2018-05-07T01:08:27.656Z,3.92
2018-05-07T01:09:30.150Z,5.10
2018-05-07T01:10:32.702Z,4.18
2018-05-07T01:11:35.195Z,3.85
2018-05-07T01:12:37.700Z,4.00
2018-05-07T01:13:40.209Z,3.50
2018-05-07T01:14:42.697Z,3.40
2018-05-07T01:15:45.212Z,4.43
2018-05-07T01:16:47.711Z,3.70
2018-05-07T01:17:51.003Z,3.85
2018-05-07T01:18:53.524Z,3.90
2018-05-07T01:19:56.009Z,4.45
2018-05-07T01:20:58.498Z,3.67
2018-05-07T01:22:01.760Z,4.75
2018-05-07T01:23:04.249Z,4.45
2018-05-07T01:24:07.506Z,4.12
2018-05-07T01:25:10.034Z,4.05
2018-05-07T01:26:12.526Z,3.65
2018-05-07T01:27:15.025Z,3.75
2018-05-07T01:28:18.289Z,3.85
2018-05-07T01:29:20.800Z,3.90
2018-05-07T01:30:23.330Z,3.78
2018-05-07T01:31:25.823Z,4.00
2018-05-07T01:32:28.317Z,4.10
2018-05-07T01:33:31.581Z,4.10
2018-05-07T01:34:34.073Z,3.80
2018-05-07T01:35:36.591Z,4.10
2018-05-07T01:36:39.090Z,4.35
2018-05-07T01:37:41.576Z,5.12
2018-05-07T01:38:44.077Z,4.05
2018-05-07T01:39:46.592Z,3.92
2018-05-07T01:40:49.100Z,4.20
2018-05-07T01:41:52.377Z,4.72
2018-05-07T01:42:54.881Z,4.55
2018-05-07T01:43:57.372Z,7.12
2018-05-07T01:44:59.856Z,4.22
2018-05-07T01:46:03.220Z,3.92
2018-05-07T01:47:05.728Z,4.62
2018-05-07T01:48:08.216Z,4.50
2018-05-07T01:49:10.716Z,4.70
2018-05-07T01:50:13.232Z,4.87
2018-05-07T01:51:15.742Z,4.20
2018-05-07T01:52:18.996Z,4.72
2018-05-07T01:53:22.261Z,4.40
2018-05-07T01:54:24.750Z,3.97
2018-05-07T01:55:27.284Z,3.95
2018-05-07T01:56:29.774Z,4.40
2018-05-07T01:57:32.278Z,4.30
2018-05-07T01:58:34.785Z,4.53
2018-05-07T01:59:37.275Z,4.65
2018-05-07T02:00:39.802Z,4.40
2018-05-07T02:01:43.075Z,4.85
2018-05-07T02:02:46.293Z,4.47
2018-05-07T02:03:49.548Z,4.75
2018-05-07T02:04:52.034Z,4.10
2018-05-07T02:05:54.530Z,4.70
2018-05-07T02:06:57.057Z,4.87
2018-05-07T02:07:59.551Z,3.90
2018-05-07T02:09:02.815Z,4.05
2018-05-07T02:10:06.830Z,4.75
2018-05-07T02:11:09.328Z,4.65
2018-05-07T02:12:11.826Z,4.95
2018-05-07T02:13:14.312Z,4.60
2018-05-07T02:14:16.792Z,4.22
2018-05-07T02:15:19.305Z,4.47
2018-05-07T02:16:22.565Z,4.18
2018-05-07T02:17:25.072Z,3.78
2018-05-07T02:18:27.568Z,4.25
2018-05-07T02:19:30.062Z,4.47
2018-05-07T02:20:34.063Z,4.30
2018-05-07T02:21:36.592Z,4.80
2018-05-07T02:22:39.089Z,4.07
2018-05-07T02:23:41.583Z,4.10
2018-05-07T02:24:45.582Z,4.45
2018-05-07T02:25:48.853Z,4.62
2018-05-07T02:26:51.383Z,4.62
2018-05-07T02:27:54.648Z,4.78
2018-05-07T02:28:57.127Z,4.80
2018-05-07T02:30:00.385Z,4.55
2018-05-07T02:31:02.883Z,5.28
2018-05-07T02:32:06.152Z,4.75
2018-05-07T02:33:08.652Z,4.80
2018-05-07T02:34:11.917Z,4.62
2018-05-07T02:35:15.197Z,4.97
2018-05-07T02:36:17.687Z,4.43
2018-05-07T02:37:20.948Z,5.57
2018-05-07T02:38:24.234Z,4.50
2018-05-07T02:39:26.765Z,4.68
2018-05-07T02:40:29.267Z,4.65
2018-05-07T02:41:31.748Z,4.47
2018-05-07T02:42:35.034Z,5.35
2018-05-07T02:43:37.517Z,5.65
2018-05-07T02:44:40.017Z,5.30
2018-05-07T02:45:42.523Z,4.80
2018-05-07T02:46:45.016Z,5.35
2018-05-07T02:47:47.541Z,5.43
2018-05-07T02:48:50.048Z,5.20
2018-05-07T02:49:52.544Z,5.05
2018-05-07T02:50:55.031Z,4.70
2018-05-07T02:51:58.290Z,4.85
2018-05-07T02:53:00.774Z,4.85
2018-05-07T02:54:03.269Z,4.97
2018-05-07T02:55:05.781Z,4.90
2018-05-07T02:56:08.268Z,4.57
2018-05-07T02:57:10.776Z,5.18
2018-05-07T02:58:13.289Z,4.40
2018-05-07T02:59:15.819Z,4.75
2018-05-07T03:00:18.348Z,5.15
2018-05-07T03:01:20.847Z,4.60
2018-05-07T03:02:24.113Z,5.07
2018-05-07T03:03:26.616Z,4.75
2018-05-07T03:04:29.888Z,4.95
2018-05-07T03:05:33.160Z,6.05
2018-05-07T03:06:37.161Z,5.57
2018-05-07T03:07:39.654Z,5.57
2018-05-07T03:08:42.954Z,4.30
2018-05-07T03:09:46.213Z,5.03
2018-05-07T03:10:49.491Z,4.87
2018-05-07T03:11:51.986Z,4.35
2018-05-07T03:12:55.255Z,5.10
2018-05-07T03:13:58.554Z,4.97
2018-05-07T03:15:01.046Z,5.10
2018-05-07T03:16:04.307Z,5.40
2018-05-07T03:17:06.797Z,5.10
2018-05-07T03:18:10.066Z,4.15
2018-05-07T03:19:12.644Z,5.22
2018-05-07T03:20:16.075Z,5.32
2018-05-07T03:21:18.581Z,5.25
2018-05-07T03:22:21.073Z,5.20
2018-05-07T03:23:25.085Z,4.62
2018-05-07T03:24:28.338Z,4.97
2018-05-07T03:25:30.857Z,4.80
2018-05-07T03:26:34.121Z,5.18
2018-05-07T03:27:36.615Z,5.22
2018-05-07T03:28:39.868Z,5.18
2018-05-07T03:29:42.355Z,5.00
2018-05-07T03:30:44.875Z,5.00
2018-05-07T03:31:47.373Z,4.82
2018-05-07T03:32:49.861Z,5.00
2018-05-07T03:33:52.353Z,6.35
2018-05-07T03:34:55.614Z,4.95
2018-05-07T03:35:58.115Z,4.45
2018-05-07T03:37:01.370Z,4.47
2018-05-07T03:38:04.678Z,4.53
2018-05-07T03:39:07.943Z,4.00
2018-05-07T03:40:10.497Z,4.82
2018-05-07T03:41:12.997Z,4.75
2018-05-07T03:42:15.495Z,4.30
2018-05-07T03:43:18.894Z,4.87
2018-05-07T03:44:21.398Z,5.00
2018-05-07T03:45:23.934Z,4.10
2018-05-07T03:46:26.425Z,4.55
2018-05-07T03:47:28.945Z,4.60
2018-05-07T03:48:31.447Z,5.35
2018-05-07T03:49:33.934Z,4.40
2018-05-07T03:50:36.481Z,4.50
2018-05-07T03:51:38.989Z,4.97
2018-05-07T03:52:41.494Z,4.20
2018-05-07T03:53:43.985Z,3.97
2018-05-07T03:54:47.264Z,5.45
2018-05-07T03:55:50.532Z,4.40
2018-05-07T03:56:53.038Z,4.40
2018-05-07T03:57:55.531Z,4.20
2018-05-07T03:58:59.647Z,4.90
2018-05-07T04:00:02.143Z,4.30
2018-05-07T04:01:04.691Z,4.87
2018-05-07T04:02:07.172Z,4.10
2018-05-07T04:03:09.689Z,4.00
2018-05-07T04:04:12.940Z,4.68
2018-05-07T04:05:15.469Z,4.10
2018-05-07T04:06:18.001Z,4.40
2018-05-07T04:07:20.523Z,4.40
2018-05-07T04:08:23.021Z,4.35
2018-05-07T04:09:25.514Z,3.45
2018-05-07T04:10:28.029Z,4.12
2018-05-07T04:11:30.534Z,4.35
2018-05-07T04:12:33.043Z,4.82
2018-05-07T04:13:36.306Z,4.35
2018-05-07T04:14:38.796Z,5.15
2018-05-07T04:15:42.075Z,4.90
2018-05-07T04:16:57.273Z,4.62
2018-05-07T04:18:11.865Z,4.00
2018-05-07T04:19:26.302Z,5.05
2018-05-07T04:20:40.749Z,4.55
2018-05-07T04:21:55.102Z,4.20
2018-05-07T04:23:09.475Z,3.60
2018-05-07T04:24:11.981Z,3.78
2018-05-07T04:25:15.259Z,3.33
2018-05-07T04:26:17.766Z,3.58
2018-05-07T04:27:20.253Z,4.10
2018-05-07T04:28:22.764Z,4.18
2018-05-07T04:29:25.252Z,3.83
2018-05-07T04:30:28.520Z,3.58
2018-05-07T04:31:31.020Z,3.50
2018-05-07T04:32:33.520Z,3.60
2018-05-07T04:33:36.063Z,3.40
2018-05-07T04:34:38.640Z,3.90
2018-05-07T04:35:41.154Z,4.12
2018-05-07T04:36:43.641Z,3.55
2018-05-07T04:37:47.656Z,3.42
2018-05-07T04:38:50.948Z,3.60
2018-05-07T04:39:54.233Z,3.40
2018-05-07T04:40:56.738Z,3.10
2018-05-07T04:41:59.253Z,3.75
2018-05-07T04:43:01.945Z,3.65
2018-05-07T04:44:04.464Z,3.42
2018-05-07T04:45:07.150Z,3.22
2018-05-07T04:46:09.667Z,3.72
2018-05-07T04:47:12.178Z,3.40
2018-05-07T04:48:14.669Z,3.37
2018-05-07T04:49:17.188Z,3.20
2018-05-07T04:50:20.466Z,2.80
2018-05-07T04:51:22.952Z,3.00
2018-05-07T04:52:26.217Z,3.00
2018-05-07T04:53:28.697Z,3.53
2018-05-07T04:54:31.967Z,3.08
2018-05-07T04:55:34.490Z,3.40
2018-05-07T04:56:37.049Z,3.20
2018-05-07T04:57:39.547Z,3.28
2018-05-07T04:58:42.045Z,2.90
2018-05-07T04:59:44.558Z,3.72
2018-05-07T05:00:47.113Z,3.30
2018-05-07T05:01:50.382Z,3.47
2018-05-07T05:02:52.869Z,3.85
2018-05-07T05:03:56.148Z,3.37
2018-05-07T05:04:59.405Z,3.30
2018-05-07T05:06:01.936Z,3.07
2018-05-07T05:07:04.492Z,3.12
2018-05-07T05:08:07.004Z,3.40
2018-05-07T05:09:09.537Z,3.10
2018-05-07T05:10:12.916Z,3.00
2018-05-07T05:11:16.246Z,3.10
2018-05-07T05:12:18.756Z,4.30
2018-05-07T05:13:21.257Z,3.27
2018-05-07T05:14:24.513Z,3.63
2018-05-07T05:15:27.043Z,3.27
2018-05-07T05:16:29.554Z,2.83
2018-05-07T05:17:32.073Z,3.30
2018-05-07T05:18:34.584Z,3.40
2018-05-07T05:19:37.086Z,3.30
2018-05-07T05:20:40.373Z,2.93
2018-05-07T05:21:43.642Z,3.13
2018-05-07T05:22:47.652Z,2.97
2018-05-07T05:23:50.172Z,3.27
2018-05-07T05:24:52.680Z,3.07
2018-05-07T05:25:55.181Z,2.70
2018-05-07T05:26:58.480Z,3.00
2018-05-07T05:28:01.761Z,3.13
2018-05-07T05:29:05.025Z,3.27
2018-05-07T05:30:07.535Z,3.10
2018-05-07T05:31:10.055Z,3.17
2018-05-07T05:32:12.562Z,3.10
2018-05-07T05:33:15.867Z,2.67
2018-05-07T05:34:18.417Z,3.20
2018-05-07T05:35:21.047Z,2.80
2018-05-07T05:36:23.552Z,2.77
2018-05-07T05:37:26.800Z,3.00
2018-05-07T05:38:29.288Z,2.90
2018-05-07T05:39:31.772Z,2.83
2018-05-07T05:40:35.794Z,3.07
2018-05-07T05:41:39.077Z,2.43
2018-05-07T05:42:42.391Z,2.87
2018-05-07T05:43:44.929Z,2.47
2018-05-07T05:44:47.377Z,2.77
2018-05-07T05:45:49.917Z,3.13
2018-05-07T05:46:52.438Z,2.60
2018-05-07T05:47:54.939Z,2.60
2018-05-07T05:48:57.440Z,2.90
2018-05-07T05:50:00.118Z,2.77
2018-05-07T05:51:02.622Z,3.33
2018-05-07T05:52:05.899Z,2.77
2018-05-07T05:53:08.390Z,3.00
2018-05-07T05:54:11.661Z,3.27
2018-05-07T05:55:14.222Z,2.60
2018-05-07T05:56:16.809Z,3.20
2018-05-07T05:57:19.994Z,2.83
2018-05-07T05:58:23.997Z,2.43
2018-05-07T05:59:27.264Z,2.97
2018-05-07T06:00:29.837Z,2.73
2018-05-07T06:01:32.357Z,2.77
2018-05-07T06:02:35.632Z,2.80
2018-05-07T06:03:38.205Z,2.37
2018-05-07T06:04:40.621Z,2.70
2018-05-07T06:05:43.135Z,2.80
2018-05-07T06:06:46.420Z,2.50
2018-05-07T06:07:50.429Z,2.40
2018-05-07T06:08:52.975Z,2.80
2018-05-07T06:09:55.425Z,2.50
2018-05-07T06:10:57.950Z,2.60
2018-05-07T06:12:00.477Z,2.87
2018-05-07T06:13:03.001Z,3.23
2018-05-07T06:14:06.288Z,2.87
2018-05-07T06:15:09.588Z,2.90
2018-05-07T06:16:12.890Z,2.60
2018-05-07T06:17:15.389Z,3.00
2018-05-07T06:18:17.915Z,2.50
2018-05-07T06:19:21.226Z,2.60
2018-05-07T06:20:23.728Z,2.60
2018-05-07T06:21:26.209Z,3.30
2018-05-07T06:22:28.715Z,2.50
2018-05-07T06:23:31.256Z,2.27
2018-05-07T06:24:33.769Z,1.80
2018-05-07T06:25:36.282Z,2.33
2018-05-07T06:26:38.786Z,2.63
2018-05-07T06:27:42.060Z,2.60
2018-05-07T06:28:45.345Z,2.40
2018-05-07T06:29:47.856Z,2.03
2018-05-07T06:30:50.364Z,2.40
2018-05-07T06:31:52.849Z,2.00
2018-05-07T06:32:55.386Z,2.17
2018-05-07T06:33:57.881Z,2.40
2018-05-07T06:35:00.367Z,2.33
2018-05-07T06:36:03.632Z,2.57
2018-05-07T06:37:06.136Z,2.17
2018-05-07T06:38:09.409Z,2.60
2018-05-07T06:39:11.909Z,2.63
2018-05-07T06:40:15.222Z,2.73
2018-05-07T06:41:17.721Z,2.30
2018-05-07T06:42:20.232Z,2.93
2018-05-07T06:43:23.488Z,2.40
2018-05-07T06:44:25.992Z,2.50
2018-05-07T06:45:29.269Z,2.47
2018-05-07T06:46:32.556Z,2.23
2018-05-07T06:47:35.829Z,2.23
2018-05-07T06:48:38.356Z,2.80
2018-05-07T06:49:40.926Z,2.40
2018-05-07T06:50:43.449Z,2.70
2018-05-07T06:51:45.956Z,2.20
2018-05-07T06:52:49.206Z,1.80
2018-05-07T06:53:51.822Z,2.43
2018-05-07T06:54:54.331Z,2.10
2018-05-07T06:55:56.823Z,2.30
2018-05-07T06:56:59.354Z,2.43
2018-05-07T06:58:01.886Z,2.63
2018-05-07T06:59:05.152Z,2.63
2018-05-07T07:00:07.672Z,2.43
2018-05-07T07:01:10.217Z,2.57
2018-05-07T07:02:13.512Z,2.33
2018-05-07T07:03:16.784Z,2.47
2018-05-07T07:04:19.276Z,2.50
2018-05-07T07:05:21.809Z,2.30
2018-05-07T07:06:24.340Z,2.60
2018-05-07T07:07:26.937Z,2.43
2018-05-07T07:08:30.401Z,2.20
2018-05-07T07:09:33.585Z,2.37
2018-05-07T07:10:36.855Z,2.30
2018-05-07T07:11:39.384Z,2.50
2018-05-07T07:12:41.893Z,2.50
2018-05-07T07:13:45.169Z,2.50
2018-05-07T07:14:48.481Z,2.07
2018-05-07T07:15:50.993Z,2.30
2018-05-07T07:16:53.472Z,2.17
2018-05-07T07:17:56.001Z,2.20
2018-05-07T07:18:58.497Z,2.17
2018-05-07T07:20:00.990Z,2.20
2018-05-07T07:21:03.510Z,2.70
2018-05-07T07:22:06.148Z,2.03
2018-05-07T07:23:09.408Z,2.27
2018-05-07T07:24:11.917Z,2.07
2018-05-07T07:25:15.196Z,2.40
2018-05-07T07:26:17.756Z,2.17
2018-05-07T07:27:20.375Z,2.33
2018-05-07T07:28:22.888Z,3.13
2018-05-07T07:29:25.385Z,2.37
2018-05-07T07:30:28.714Z,2.87
2018-05-07T07:31:31.215Z,2.47
2018-05-07T07:32:33.701Z,2.00
2018-05-07T07:33:36.226Z,2.20
2018-05-07T07:34:38.713Z,2.67
2018-05-07T07:35:41.347Z,2.13
2018-05-07T07:36:43.860Z,2.23
2018-05-07T07:37:46.366Z,2.07
2018-05-07T07:38:49.652Z,2.23
2018-05-07T07:39:52.909Z,2.40
2018-05-07T07:40:55.529Z,1.87
2018-05-07T07:41:58.809Z,2.23
2018-05-07T07:43:02.075Z,2.30
2018-05-07T07:44:04.591Z,2.30
2018-05-07T07:45:07.165Z,2.00
2018-05-07T07:46:09.804Z,3.00
2018-05-07T07:47:13.160Z,2.40
2018-05-07T07:48:16.401Z,2.30
2018-05-07T07:49:18.931Z,2.33
2018-05-07T07:50:21.438Z,2.13
2018-05-07T07:51:23.925Z,2.13
2018-05-07T07:52:26.479Z,1.80
2018-05-07T07:53:29.046Z,2.20
2018-05-07T07:54:31.470Z,1.80
2018-05-07T07:55:33.997Z,2.00
2018-05-07T07:56:36.503Z,2.60
2018-05-07T07:57:39.033Z,2.10
2018-05-07T07:58:41.533Z,1.80
2018-05-07T07:59:44.042Z,1.90
2018-05-07T08:00:46.556Z,2.30
2018-05-07T08:01:49.109Z,2.20
2018-05-07T08:02:52.385Z,2.07
2018-05-07T08:03:55.648Z,2.13
2018-05-07T08:04:58.181Z,2.03
2018-05-07T08:06:00.683Z,1.83
2018-05-07T08:07:03.176Z,1.67
2018-05-07T08:08:05.681Z,2.30
2018-05-07T08:09:08.177Z,1.47
2018-05-07T08:10:10.815Z,1.77
2018-05-07T08:11:13.377Z,2.00
2018-05-07T08:12:16.743Z,2.20
2018-05-07T08:13:19.910Z,2.07
2018-05-07T08:14:22.417Z,2.20
2018-05-07T08:15:25.705Z,2.00
2018-05-07T08:16:28.951Z,1.80
2018-05-07T08:17:31.436Z,1.80
2018-05-07T08:18:33.982Z,1.90
2018-05-07T08:19:37.227Z,2.20
2018-05-07T08:20:40.501Z,2.17
2018-05-07T08:21:42.997Z,2.00
2018-05-07T08:22:45.961Z,1.97
2018-05-07T08:23:48.465Z,1.70
2018-05-07T08:24:51.106Z,3.10
2018-05-07T08:25:54.276Z,2.20
2018-05-07T08:26:57.574Z,2.67
2018-05-07T08:28:00.065Z,2.20
2018-05-07T08:29:02.572Z,2.20
2018-05-07T08:30:05.132Z,2.40
2018-05-07T08:31:07.645Z,2.53
2018-05-07T08:32:10.182Z,2.30
2018-05-07T08:33:12.713Z,2.33
2018-05-07T08:34:15.991Z,2.37
2018-05-07T08:35:19.312Z,2.40
2018-05-07T08:36:21.816Z,1.80
2018-05-07T08:37:24.317Z,2.00
2018-05-07T08:38:27.578Z,2.03
2018-05-07T08:39:30.069Z,2.33
2018-05-07T08:40:32.590Z,2.10
2018-05-07T08:41:35.105Z,2.17
2018-05-07T08:42:37.607Z,2.07
2018-05-07T08:43:40.859Z,2.20
2018-05-07T08:44:43.360Z,2.10
2018-05-07T08:45:46.629Z,2.27
2018-05-07T08:46:49.146Z,2.50
2018-05-07T08:47:51.667Z,2.10
2018-05-07T08:48:54.172Z,2.57
2018-05-07T08:49:56.670Z,2.50
2018-05-07T08:50:59.229Z,2.40
2018-05-07T08:52:02.471Z,2.43
2018-05-07T08:53:05.028Z,2.37
2018-05-07T08:54:07.485Z,2.60
2018-05-07T08:55:10.012Z,2.70
2018-05-07T08:56:12.508Z,2.40
2018-05-07T08:57:15.027Z,2.40
2018-05-07T08:58:18.310Z,2.50
2018-05-07T08:59:21.577Z,2.23
2018-05-07T09:00:24.108Z,2.23
2018-05-07T09:01:26.632Z,2.20
2018-05-07T09:02:29.135Z,2.50
2018-05-07T09:03:31.633Z,2.03
2018-05-07T09:04:34.129Z,2.10
2018-05-07T09:05:36.641Z,2.27
2018-05-07T09:06:39.903Z,2.13
2018-05-07T09:07:42.425Z,2.10
2018-05-07T09:08:44.950Z,2.00
2018-05-07T09:09:47.462Z,1.93
2018-05-07T09:10:49.966Z,2.87
2018-05-07T09:11:52.477Z,2.40
2018-05-07T09:12:55.768Z,2.20
2018-05-07T09:13:59.070Z,2.27
2018-05-07T09:15:01.584Z,2.10
2018-05-07T09:16:04.076Z,2.37
2018-05-07T09:17:07.333Z,2.13
2018-05-07T09:18:09.882Z,2.47
2018-05-07T09:19:12.397Z,2.67
2018-05-07T09:20:15.680Z,2.17
2018-05-07T09:21:18.189Z,2.27
2018-05-07T09:22:21.448Z,2.47
2018-05-07T09:23:23.950Z,2.40
2018-05-07T09:24:26.431Z,2.00
2018-05-07T09:25:28.943Z,2.13
2018-05-07T09:26:31.454Z,1.90
2018-05-07T09:27:34.716Z,2.23
2018-05-07T09:28:38.774Z,2.20
2018-05-07T09:29:41.282Z,1.87
2018-05-07T09:30:43.809Z,2.10
2018-05-07T09:31:46.309Z,2.00
2018-05-07T09:32:48.818Z,1.83
2018-05-07T09:33:52.098Z,1.90
2018-05-07T09:34:56.107Z,2.03
2018-05-07T09:35:58.717Z,1.90
2018-05-07T09:37:01.290Z,1.97
2018-05-07T09:38:03.767Z,2.00
2018-05-07T09:39:08.085Z,2.13
2018-05-07T09:40:10.820Z,2.10
2018-05-07T09:41:14.080Z,2.23
2018-05-07T09:42:16.576Z,1.63
2018-05-07T09:43:19.902Z,1.97
2018-05-07T09:44:23.142Z,2.30
2018-05-07T09:45:26.446Z,1.60
2018-05-07T09:46:29.710Z,2.00
2018-05-07T09:47:32.203Z,1.60
2018-05-07T09:48:35.503Z,1.63
2018-05-07T09:49:37.992Z,1.87
2018-05-07T09:50:40.534Z,2.00
2018-05-07T09:51:43.820Z,2.00
2018-05-07T09:52:47.113Z,1.50
2018-05-07T09:53:50.382Z,1.50
2018-05-07T09:54:53.650Z,1.67
2018-05-07T09:55:56.949Z,2.27
2018-05-07T09:56:59.570Z,2.50
2018-05-07T09:58:03.829Z,2.30
2018-05-07T09:59:06.344Z,2.03
2018-05-07T10:00:08.867Z,1.77
2018-05-07T10:01:11.371Z,2.03
2018-05-07T10:02:14.648Z,1.60
2018-05-07T10:03:17.949Z,2.20
2018-05-07T10:04:21.253Z,1.83
2018-05-07T10:05:23.767Z,2.20
2018-05-07T10:06:26.258Z,3.47
2018-05-07T10:07:28.752Z,1.77
2018-05-07T10:08:32.016Z,2.27
2018-05-07T10:09:34.541Z,2.20
2018-05-07T10:10:37.095Z,2.50
2018-05-07T10:12:48.522Z,1.93
2018-05-07T10:13:51.054Z,1.70
2018-05-07T10:14:53.553Z,1.83
2018-05-07T10:15:56.050Z,2.07
2018-05-07T10:16:58.653Z,1.92
2018-05-07T10:18:01.095Z,2.03
2018-05-07T10:19:03.595Z,2.28
2018-05-07T10:20:06.111Z,2.20
2018-05-07T10:21:08.604Z,1.83
2018-05-07T10:22:11.186Z,2.05
2018-05-07T10:23:14.447Z,2.20
2018-05-07T10:24:17.026Z,2.17
2018-05-07T10:25:20.068Z,2.10
2018-05-07T10:26:22.560Z,2.05
2018-05-07T10:27:25.057Z,2.28
2018-05-07T10:28:27.556Z,2.10
2018-05-07T10:29:30.828Z,2.15
2018-05-07T10:30:34.139Z,1.83
2018-05-07T10:31:36.663Z,1.95
2018-05-07T10:32:39.176Z,2.30
2018-05-07T10:33:42.442Z,1.70
2018-05-07T10:34:44.945Z,1.48
2018-05-07T10:35:47.498Z,1.48
2018-05-07T10:36:50.789Z,2.47
2018-05-07T10:37:54.064Z,1.92
2018-05-07T10:38:56.569Z,1.67
2018-05-07T10:39:59.860Z,2.62
2018-05-07T10:41:02.366Z,2.35
2018-05-07T10:42:04.865Z,1.90
2018-05-07T10:43:08.134Z,2.05
2018-05-07T10:44:10.666Z,1.87
2018-05-07T10:45:13.247Z,1.85
2018-05-07T10:46:15.797Z,2.10
2018-05-07T10:47:18.345Z,2.00
2018-05-07T10:48:21.618Z,2.00
2018-05-07T10:49:24.102Z,1.80
2018-05-07T10:50:27.397Z,1.73
2018-05-07T10:51:30.688Z,2.00
2018-05-07T10:52:33.961Z,1.90
2018-05-07T10:53:36.497Z,1.98
2018-05-07T10:54:38.982Z,2.17
2018-05-07T10:55:41.513Z,1.98
2018-05-07T10:56:44.036Z,2.00
2018-05-07T10:57:47.312Z,2.20
2018-05-07T10:58:49.823Z,2.90
2018-05-07T10:59:53.094Z,2.20
2018-05-07T11:00:56.377Z,2.20
2018-05-07T11:01:58.888Z,2.40
2018-05-07T11:03:01.377Z,1.87
2018-05-07T11:04:03.867Z,2.03
2018-05-07T11:05:06.371Z,2.03
2018-05-07T11:06:09.648Z,4.15
2018-05-07T11:07:12.932Z,2.00
2018-05-07T11:08:15.418Z,2.22
2018-05-07T11:09:17.922Z,1.73
2018-05-07T11:10:20.485Z,1.90
2018-05-07T11:11:22.981Z,1.90
2018-05-07T11:12:25.495Z,1.80
2018-05-07T11:13:28.766Z,2.00
2018-05-07T11:14:32.061Z,2.30
2018-05-07T11:15:34.580Z,1.90
2018-05-07T11:16:37.078Z,2.08
2018-05-07T11:17:39.588Z,2.67
2018-05-07T11:18:42.849Z,2.05
2018-05-07T11:19:45.422Z,2.25
2018-05-07T11:20:47.907Z,2.03
2018-05-07T11:21:51.173Z,2.33
2018-05-07T11:22:53.683Z,1.90
2018-05-07T11:23:56.184Z,1.95
2018-05-07T11:24:58.679Z,1.92
2018-05-07T11:26:01.198Z,2.30
2018-05-07T11:27:03.699Z,2.30
2018-05-07T11:28:06.215Z,2.45
2018-05-07T11:29:08.750Z,1.95
2018-05-07T11:30:11.346Z,1.70
2018-05-07T11:31:13.867Z,1.60
2018-05-07T11:32:16.370Z,2.00
2018-05-07T11:33:18.915Z,2.08
2018-05-07T11:34:21.422Z,2.22
2018-05-07T11:35:23.940Z,2.22
2018-05-07T11:36:26.479Z,2.17
2018-05-07T11:37:29.745Z,1.90
2018-05-07T11:38:32.265Z,2.50
2018-05-07T11:39:34.762Z,2.30
2018-05-07T11:40:37.286Z,2.33
2018-05-07T11:41:40.569Z,2.53
2018-05-07T11:42:43.829Z,2.80
2018-05-07T11:43:46.338Z,2.33
2018-05-07T11:44:49.615Z,2.03
2018-05-07T11:45:52.908Z,2.05
2018-05-07T11:46:56.183Z,2.00
2018-05-07T11:47:58.689Z,2.20
2018-05-07T11:49:01.209Z,2.10
2018-05-07T11:50:03.725Z,1.98
2018-05-07T11:51:06.255Z,1.92
2018-05-07T11:52:08.765Z,2.40
2018-05-07T11:53:11.400Z,1.85
2018-05-07T11:54:13.905Z,3.00
2018-05-07T11:55:16.492Z,1.98
2018-05-07T11:56:19.006Z,2.35
2018-05-07T11:57:21.513Z,2.12
2018-05-07T11:58:24.042Z,1.42
2018-05-07T11:59:26.577Z,2.10
2018-05-07T12:00:29.127Z,2.37
2018-05-07T12:01:32.392Z,1.67
2018-05-07T12:02:35.008Z,2.20
2018-05-07T12:03:37.539Z,2.00
2018-05-07T12:04:40.064Z,1.75
2018-05-07T12:05:42.642Z,1.80
2018-05-07T12:06:45.289Z,2.37
2018-05-07T12:07:47.805Z,1.70
2018-05-07T12:08:51.128Z,2.30
2018-05-07T12:09:53.669Z,2.08
2018-05-07T12:10:56.180Z,2.85
2018-05-07T12:11:58.693Z,1.90
2018-05-07T12:13:01.238Z,2.00
2018-05-07T12:14:03.713Z,1.85
2018-05-07T12:15:06.270Z,2.37
2018-05-07T12:16:08.886Z,1.92
2018-05-07T12:17:11.353Z,2.05
2018-05-07T12:18:13.868Z,1.80
2018-05-07T12:19:16.412Z,2.00
2018-05-07T12:20:18.964Z,2.03
2018-05-07T12:21:21.512Z,1.63
2018-05-07T12:22:24.018Z,1.85
2018-05-07T12:23:26.528Z,1.90
2018-05-07T12:24:29.084Z,1.87
2018-05-07T12:25:32.400Z,2.10
2018-05-07T12:26:34.913Z,2.00
2018-05-07T12:27:38.201Z,1.73
2018-05-07T12:28:40.699Z,1.75
2018-05-07T12:29:43.210Z,2.45
2018-05-07T12:30:45.753Z,1.80
2018-05-07T12:31:48.406Z,2.00
2018-05-07T12:32:50.861Z,1.90
2018-05-07T12:33:53.349Z,1.60
2018-05-07T12:34:56.638Z,2.50
2018-05-07T12:35:59.922Z,2.10
2018-05-07T12:37:03.222Z,1.80
2018-05-07T12:38:06.554Z,2.33
2018-05-07T12:39:09.066Z,2.17
2018-05-07T12:40:11.703Z,1.80
2018-05-07T12:41:14.230Z,1.50
2018-05-07T12:42:17.509Z,1.83
2018-05-07T12:43:20.769Z,2.00
2018-05-07T12:44:23.271Z,1.70
2018-05-07T12:45:26.547Z,1.80
2018-05-07T12:46:29.833Z,1.97
2018-05-07T12:47:32.342Z,1.50
2018-05-07T12:48:34.847Z,2.53
2018-05-07T12:49:37.385Z,2.27
2018-05-07T12:50:40.031Z,2.10
2018-05-07T12:51:42.472Z,1.80
2018-05-07T12:52:45.043Z,1.97
2018-05-07T12:53:48.257Z,1.60
2018-05-07T12:54:51.540Z,1.50
2018-05-07T12:55:54.833Z,1.63
2018-05-07T12:56:58.094Z,2.10
2018-05-07T12:58:00.618Z,2.10
2018-05-07T12:59:03.229Z,1.60
2018-05-07T13:00:05.676Z,2.00
2018-05-07T13:01:08.189Z,1.90
2018-05-07T13:02:10.703Z,2.10
2018-05-07T13:03:13.210Z,2.10
2018-05-07T13:04:15.716Z,1.80
2018-05-07T13:05:18.996Z,1.60
2018-05-07T13:06:21.523Z,2.13
2018-05-07T13:07:24.027Z,1.87
2018-05-07T13:08:26.522Z,2.37
2018-05-07T13:09:29.793Z,1.50
2018-05-07T13:10:33.091Z,1.93
2018-05-07T13:11:36.421Z,2.03
2018-05-07T13:12:38.946Z,1.63
2018-05-07T13:13:41.551Z,1.73
2018-05-07T13:14:44.047Z,1.70
2018-05-07T13:15:46.563Z,1.70
2018-05-07T13:16:49.848Z,1.83
2018-05-07T13:17:53.128Z,2.33
2018-05-07T13:18:55.615Z,1.97
2018-05-07T13:19:58.884Z,1.60
2018-05-07T13:21:01.392Z,1.73
2018-05-07T13:22:03.910Z,1.47
2018-05-07T13:23:06.422Z,1.57
2018-05-07T13:24:09.842Z,1.90
2018-05-07T13:25:12.490Z,1.67
2018-05-07T13:26:15.757Z,1.67
2018-05-07T13:27:19.065Z,1.73
2018-05-07T13:28:22.336Z,1.93
2018-05-07T13:29:25.602Z,2.13
2018-05-07T13:30:28.134Z,1.80
2018-05-07T13:31:30.666Z,1.90
2018-05-07T13:32:33.189Z,1.80
2018-05-07T13:33:35.725Z,1.87
2018-05-07T13:34:38.998Z,1.70
2018-05-07T13:35:42.305Z,1.90
2018-05-07T13:36:45.635Z,1.83
2018-05-07T13:37:48.106Z,1.50
2018-05-07T13:38:50.641Z,1.70
2018-05-07T13:39:53.889Z,1.50
2018-05-07T13:40:56.405Z,1.90
2018-05-07T13:41:58.904Z,1.80
2018-05-07T13:43:01.428Z,2.07
2018-05-07T13:44:04.713Z,2.00
2018-05-07T13:45:07.231Z,1.63
2018-05-07T13:46:09.772Z,2.30
2018-05-07T13:47:12.305Z,1.70
2018-05-07T13:48:14.831Z,1.73
2018-05-07T13:49:17.337Z,1.37
2018-05-07T13:50:20.077Z,1.70
2018-05-07T13:51:22.585Z,2.10
2018-05-07T13:52:25.089Z,1.50
2018-05-07T13:53:28.357Z,1.87
2018-05-07T13:54:30.877Z,1.50
2018-05-07T13:55:33.416Z,1.40
2018-05-07T13:56:36.696Z,2.03
2018-05-07T13:57:39.980Z,1.70